Time;durP1;ratioP1;P1;durP2;ratioP2;P2;SDS_P1;SDS_P2;PMS_P1;PMS_P2;Temp;Humidity;BMP_temperature;BMP_pressure;BME280_temperature;BME280_humidity;BME280_pressure;Samples;Min_cycle;Max_cycle;Signal;HPM_P1;HPM_P2
2022/04/13 00:00:58;;;;;;;0.50;0.40;;;16.10;99.90;;;;;;5070634;28;20455;-78
2022/04/13 00:03:25;;;;;;;0.50;0.30;;;16.10;99.90;;;;;;5071056;28;20467;-78
2022/04/13 00:05:55;;;;;;;0.50;0.40;;;16.00;99.90;;;;;;5071048;28;20464;-75
2022/04/13 00:08:21;;;;;;;0.50;0.40;;;15.80;99.90;;;;;;5071031;28;20451;-77
2022/04/13 00:10:48;;;;;;;0.50;0.30;;;15.80;99.90;;;;;;5070266;28;20515;-78
2022/04/13 00:13:15;;;;;;;0.50;0.40;;;15.80;99.90;;;;;;5070951;28;20484;-76
2022/04/13 00:15:42;;;;;;;0.50;0.40;;;15.70;99.90;;;;;;5071259;28;20443;-78
2022/04/13 00:18:09;;;;;;;0.60;0.50;;;15.80;99.90;;;;;;5074635;28;20444;-78
2022/04/13 00:20:36;;;;;;;0.50;0.30;;;15.80;99.90;;;;;;5074334;28;20440;-78
2022/04/13 00:23:04;;;;;;;0.50;0.30;;;15.80;99.90;;;;;;5075124;28;20459;-78
2022/04/13 00:25:31;;;;;;;0.50;0.40;;;15.80;99.90;;;;;;5075173;28;20557;-77
2022/04/13 00:27:58;;;;;;;0.50;0.40;;;15.80;99.90;;;;;;5073469;28;20453;-78
2022/04/13 00:30:24;;;;;;;0.50;0.30;;;15.70;99.90;;;;;;5074093;28;20444;-78
2022/04/13 00:32:51;;;;;;;0.50;0.40;;;15.70;99.90;;;;;;5074606;28;20466;-77
2022/04/13 00:35:18;;;;;;;0.50;0.40;;;15.70;99.90;;;;;;5074963;28;20455;-77
2022/04/13 00:37:45;;;;;;;0.50;0.37;;;15.70;99.90;;;;;;5074780;28;20944;-77
2022/04/13 00:40:13;;;;;;;0.50;0.30;;;15.70;99.90;;;;;;5074096;28;20440;-78
2022/04/13 00:42:40;;;;;;;0.50;0.30;;;15.80;99.90;;;;;;5074471;28;20466;-78
2022/04/13 00:45:07;;;;;;;0.60;0.60;;;15.80;99.90;;;;;;5074329;28;20472;-76
2022/04/13 00:47:41;;;;;;;0.50;0.40;;;15.80;99.90;;;;;;5074413;28;20436;-78
2022/04/13 00:50:09;;;;;;;0.50;0.30;;;15.80;99.90;;;;;;5074224;28;20424;-78
2022/04/13 00:52:39;;;;;;;0.50;0.40;;;15.70;99.90;;;;;;5074502;28;20469;-78
2022/04/13 00:55:08;;;;;;;0.50;0.40;;;15.60;99.90;;;;;;5074742;28;20492;-77
2022/04/13 00:57:38;;;;;;;0.50;0.30;;;15.60;99.90;;;;;;5074214;28;20439;-77
2022/04/13 01:00:07;;;;;;;0.50;0.40;;;15.50;99.90;;;;;;5073399;28;20440;-77
2022/04/13 01:02:37;;;;;;;0.50;0.40;;;15.50;99.90;;;;;;5073127;28;20460;-78
2022/04/13 01:05:08;;;;;;;0.50;0.40;;;15.50;99.90;;;;;;5074139;28;20894;-78
2022/04/13 01:07:36;;;;;;;7.27;2.20;;;15.50;99.90;;;;;;5073760;28;21052;-77
2022/04/13 01:10:05;;;;;;;0.50;0.40;;;15.50;99.90;;;;;;5073366;28;20848;-77
2022/04/13 01:12:32;;;;;;;1.03;0.93;;;15.50;99.90;;;;;;5073596;28;20525;-78
2022/04/13 01:15:01;;;;;;;0.50;0.40;;;15.50;99.90;;;;;;5074013;28;20440;-78
2022/04/13 01:17:28;;;;;;;0.50;0.30;;;15.50;99.90;;;;;;5073802;28;20444;-78
2022/04/13 01:19:56;;;;;;;0.50;0.37;;;15.40;99.90;;;;;;5073530;28;20822;-77
2022/04/13 01:22:25;;;;;;;0.70;0.70;;;15.40;99.90;;;;;;5073782;28;20464;-79
2022/04/13 01:24:52;;;;;;;0.50;0.40;;;15.40;99.90;;;;;;5073993;28;20464;-78
2022/04/13 01:27:19;;;;;;;0.50;0.30;;;15.50;99.90;;;;;;5071615;28;20440;-74
2022/04/13 01:29:48;;;;;;;0.50;0.30;;;15.40;99.90;;;;;;5072734;28;20610;-77
2022/04/13 01:32:15;;;;;;;0.50;0.30;;;15.40;99.90;;;;;;5073391;28;20521;-78
2022/04/13 01:34:48;;;;;;;0.50;0.30;;;15.30;99.90;;;;;;5075280;28;20444;-77
2022/04/13 01:37:15;;;;;;;0.50;0.40;;;15.30;99.90;;;;;;5073385;28;21048;-78
2022/04/13 01:39:43;;;;;;;0.50;0.30;;;15.30;99.90;;;;;;5073173;28;20802;-77
2022/04/13 01:42:10;;;;;;;0.50;0.40;;;15.20;99.90;;;;;;5073884;28;20958;-77
2022/04/13 01:44:37;;;;;;;0.50;0.30;;;15.20;99.90;;;;;;5073791;28;20432;-79
2022/04/13 01:47:04;;;;;;;20.70;18.60;;;15.30;99.90;;;;;;5073750;28;20845;-78
2022/04/13 01:49:31;;;;;;;0.50;0.30;;;15.30;99.90;;;;;;5072855;28;20536;-77
2022/04/13 01:51:58;;;;;;;0.50;0.40;;;15.20;99.90;;;;;;5073828;28;20460;-78
2022/04/13 01:54:25;;;;;;;0.50;0.30;;;15.20;99.90;;;;;;5073138;28;20866;-78
2022/04/13 01:56:53;;;;;;;0.50;0.40;;;15.10;99.90;;;;;;5073591;28;20460;-78
2022/04/13 01:59:19;;;;;;;0.50;0.40;;;15.30;99.90;;;;;;5072409;28;20448;-78
2022/04/13 02:01:46;;;;;;;0.50;0.40;;;15.30;99.90;;;;;;5073010;28;20464;-79
2022/04/13 02:04:17;;;;;;;0.50;0.40;;;15.30;99.90;;;;;;5073076;28;20437;-78
2022/04/13 02:06:44;;;;;;;0.50;0.33;;;15.20;99.90;;;;;;5073395;28;20508;-78
2022/04/13 02:09:11;;;;;;;0.50;0.30;;;15.20;99.90;;;;;;5071779;28;20436;-78
2022/04/13 02:11:37;;;;;;;0.50;0.30;;;15.10;99.90;;;;;;5072601;28;20464;-78
2022/04/13 02:14:06;;;;;;;0.50;0.40;;;15.10;99.90;;;;;;5072752;28;20446;-78
2022/04/13 02:16:33;;;;;;;0.50;0.40;;;15.00;99.90;;;;;;5073061;28;20447;-78
2022/04/13 02:19:00;;;;;;;0.50;0.40;;;15.00;99.90;;;;;;5072101;28;20436;-77
2022/04/13 02:21:26;;;;;;;0.50;0.40;;;15.00;99.90;;;;;;5073056;28;20444;-78
2022/04/13 02:23:53;;;;;;;0.50;0.40;;;15.00;99.90;;;;;;5072593;28;20946;-77
2022/04/13 02:26:22;;;;;;;0.50;0.33;;;14.90;99.90;;;;;;5072262;28;20471;-78
2022/04/13 02:28:49;;;;;;;0.50;0.40;;;14.80;99.90;;;;;;5070245;28;20462;-78
2022/04/13 02:31:17;;;;;;;0.50;0.40;;;14.70;99.90;;;;;;5072993;28;20447;-77
2022/04/13 02:33:44;;;;;;;0.50;0.37;;;14.60;99.90;;;;;;5074143;28;20438;-78
2022/04/13 02:36:11;;;;;;;0.50;0.30;;;14.60;99.90;;;;;;5076466;28;20444;-78
2022/04/13 02:38:38;;;;;;;0.50;0.40;;;14.60;99.90;;;;;;5072255;28;20440;-76
2022/04/13 02:41:05;;;;;;;0.50;0.30;;;14.70;99.90;;;;;;5070846;28;20941;-77
2022/04/13 02:43:32;;;;;;;0.50;0.40;;;14.60;99.90;;;;;;5072496;28;20461;-78
2022/04/13 02:45:58;;;;;;;0.50;0.40;;;14.60;99.90;;;;;;5072240;28;20850;-78
2022/04/13 02:48:27;;;;;;;0.50;0.30;;;14.60;99.90;;;;;;5072058;28;20444;-79
2022/04/13 02:50:54;;;;;;;0.50;0.40;;;14.60;99.90;;;;;;5071467;28;20471;-78
2022/04/13 02:53:22;;;;;;;0.50;0.40;;;14.60;99.90;;;;;;5072049;28;20459;-78
2022/04/13 02:55:51;;;;;;;0.50;0.33;;;14.60;99.90;;;;;;5072194;28;20861;-78
2022/04/13 02:58:18;;;;;;;0.50;0.30;;;14.50;99.90;;;;;;5072167;28;20491;-77
2022/04/13 03:00:44;;;;;;;0.50;0.30;;;14.50;99.90;;;;;;5071067;28;20444;-78
2022/04/13 03:03:11;;;;;;;0.50;0.40;;;14.50;99.90;;;;;;5071881;28;20459;-78
2022/04/13 03:05:39;;;;;;;0.50;0.40;;;14.40;99.90;;;;;;5071842;28;20475;-78
2022/04/13 03:08:06;;;;;;;0.50;0.30;;;14.40;99.90;;;;;;5072093;28;20440;-77
2022/04/13 03:10:33;;;;;;;0.60;0.60;;;14.40;99.90;;;;;;5071021;28;20452;-78
2022/04/13 03:13:00;;;;;;;0.50;0.40;;;14.40;99.90;;;;;;5072059;28;20822;-78
2022/04/13 03:15:27;;;;;;;0.50;0.40;;;14.30;99.90;;;;;;5071741;28;20455;-78
2022/04/13 03:17:54;;;;;;;0.50;0.40;;;14.40;99.90;;;;;;5071558;28;20963;-77
2022/04/13 03:20:20;;;;;;;1.57;1.47;;;14.50;99.90;;;;;;5071065;28;20810;-78
2022/04/13 03:22:50;;;;;;;0.50;0.43;;;14.60;99.90;;;;;;5071274;28;21013;-78
2022/04/13 03:25:17;;;;;;;0.60;0.60;;;14.60;99.90;;;;;;5071422;28;20450;-74
2022/04/13 03:27:44;;;;;;;0.50;0.40;;;14.60;99.90;;;;;;5069789;28;21012;-78
2022/04/13 03:30:13;;;;;;;0.50;0.40;;;14.70;99.90;;;;;;5070693;28;20958;-78
2022/04/13 03:32:40;;;;;;;0.50;0.37;;;14.70;99.90;;;;;;5070845;28;20491;-76
2022/04/13 03:35:09;;;;;;;0.50;0.40;;;14.70;99.90;;;;;;5071332;28;20856;-78
2022/04/13 03:37:36;;;;;;;0.50;0.40;;;14.70;99.90;;;;;;5071260;28;20938;-77
2022/04/13 03:40:05;;;;;;;0.60;0.60;;;14.70;99.90;;;;;;5070731;28;20428;-78
2022/04/13 03:42:34;;;;;;;0.60;0.50;;;14.70;99.90;;;;;;5071633;28;20464;-78
2022/04/13 03:45:03;;;;;;;3.27;3.13;;;14.70;99.90;;;;;;5071597;28;20443;-78
2022/04/13 03:47:30;;;;;;;0.50;0.40;;;14.70;99.90;;;;;;5071826;28;20478;-78
2022/04/13 03:49:56;;;;;;;0.50;0.40;;;14.70;99.90;;;;;;5070689;28;20447;-78
2022/04/13 03:52:23;;;;;;;0.60;0.50;;;14.60;99.90;;;;;;5070687;28;20455;-77
2022/04/13 03:54:50;;;;;;;2.70;2.50;;;14.60;99.90;;;;;;5071025;28;20938;-78
2022/04/13 03:57:18;;;;;;;0.50;0.40;;;14.60;99.90;;;;;;5071362;28;20439;-78
2022/04/13 03:59:45;;;;;;;0.50;0.40;;;14.60;99.90;;;;;;5070734;28;20436;-78
2022/04/13 04:02:12;;;;;;;0.50;0.40;;;14.60;99.90;;;;;;5071133;28;20464;-78
2022/04/13 04:04:38;;;;;;;0.60;0.40;;;14.60;99.90;;;;;;5071055;28;20946;-75
2022/04/13 04:07:05;;;;;;;0.50;0.40;;;14.60;99.90;;;;;;5070841;28;20507;-78
2022/04/13 04:09:32;;;;;;;0.50;0.40;;;14.60;99.90;;;;;;5070312;28;20441;-78
2022/04/13 04:11:58;;;;;;;0.50;0.37;;;14.60;99.90;;;;;;5071966;28;20455;-77
2022/04/13 04:14:26;;;;;;;0.50;0.40;;;14.50;99.90;;;;;;5070884;28;20441;-78
2022/04/13 04:16:53;;;;;;;0.50;0.40;;;14.50;99.90;;;;;;5071560;28;20821;-77
2022/04/13 04:19:20;;;;;;;2.17;1.00;;;14.50;99.90;;;;;;5070077;28;20444;-77
2022/04/13 04:21:47;;;;;;;1.80;1.70;;;14.50;99.90;;;;;;5071875;28;20460;-78
2022/04/13 04:24:13;;;;;;;0.50;0.40;;;14.50;99.90;;;;;;5071322;28;20867;-79
2022/04/13 04:26:40;;;;;;;0.50;0.30;;;14.40;99.90;;;;;;5069558;28;20473;-78
2022/04/13 04:29:07;;;;;;;0.50;0.40;;;14.40;99.90;;;;;;5070032;28;20444;-77
2022/04/13 04:34:21;;;;;;;0.50;0.40;;;14.30;99.90;;;;;;5071505;28;20790;-79
2022/04/13 04:36:47;;;;;;;1.03;1.03;;;14.30;99.90;;;;;;5071718;28;20433;-79
2022/04/13 04:39:14;;;;;;;0.50;0.40;;;14.20;99.90;;;;;;5070165;28;20440;-79
2022/04/13 04:41:41;;;;;;;0.50;0.40;;;14.20;99.90;;;;;;5070774;28;20469;-79
2022/04/13 04:44:09;;;;;;;0.50;0.40;;;14.10;99.90;;;;;;5071272;28;20432;-78
2022/04/13 04:46:37;;;;;;;0.50;0.40;;;14.00;99.90;;;;;;5070915;28;20839;-78
2022/04/13 04:49:05;;;;;;;5.23;2.40;;;14.00;99.90;;;;;;5070142;28;20451;-78
2022/04/13 04:51:31;;;;;;;0.50;0.30;;;14.00;99.90;;;;;;5071057;28;20465;-79
2022/04/13 04:53:58;;;;;;;0.50;0.30;;;14.00;99.90;;;;;;5070967;28;20447;-78
2022/04/13 04:56:25;;;;;;;0.50;0.40;;;14.00;99.90;;;;;;5070802;28;20794;-78
2022/04/13 04:58:52;;;;;;;0.50;0.30;;;14.00;99.90;;;;;;5070613;28;20439;-78
2022/04/13 05:01:19;;;;;;;0.50;0.40;;;13.90;99.90;;;;;;5070596;28;20440;-77
2022/04/13 05:03:49;;;;;;;0.50;0.40;;;13.90;99.90;;;;;;5072474;28;20439;-78
2022/04/13 05:06:18;;;;;;;0.53;0.43;;;13.90;99.90;;;;;;5074338;28;20526;-78
2022/04/13 05:08:45;;;;;;;1.30;1.20;;;14.00;99.90;;;;;;5073832;28;20440;-76
2022/04/13 05:11:12;;;;;;;0.50;0.40;;;14.10;99.90;;;;;;5074144;28;20452;-75
2022/04/13 05:13:39;;;;;;;0.50;0.30;;;14.20;99.90;;;;;;5074612;28;20439;-78
2022/04/13 05:16:06;;;;;;;0.60;0.50;;;14.20;99.90;;;;;;5073957;28;20802;-77
2022/04/13 05:18:33;;;;;;;0.50;0.40;;;14.30;99.90;;;;;;5074255;28;20449;-78
2022/04/13 05:21:01;;;;;;;0.50;0.30;;;14.40;99.90;;;;;;5073191;28;20778;-78
2022/04/13 05:23:28;;;;;;;0.50;0.40;;;14.50;99.90;;;;;;5074632;28;20468;-79
2022/04/13 05:25:54;;;;;;;0.50;0.40;;;14.60;99.90;;;;;;5076620;28;20444;-78
2022/04/13 05:28:21;;;;;;;0.60;0.40;;;14.80;99.90;;;;;;5075827;28;20937;-78
2022/04/13 05:30:48;;;;;;;1.43;1.33;;;14.90;99.90;;;;;;5075824;28;20436;-79
2022/04/13 05:33:14;;;;;;;0.50;0.40;;;15.10;99.90;;;;;;5076406;28;20468;-75
2022/04/13 05:35:41;;;;;;;0.77;0.57;;;15.20;99.90;;;;;;5075665;28;20441;-77
2022/04/13 05:38:10;;;;;;;0.50;0.40;;;15.30;99.90;;;;;;5076046;28;20455;-77
2022/04/13 05:40:36;;;;;;;0.53;0.40;;;15.40;99.90;;;;;;5075530;28;20444;-77
2022/04/13 05:43:03;;;;;;;0.50;0.40;;;15.50;99.90;;;;;;5075185;28;20460;-78
2022/04/13 05:45:30;;;;;;;0.50;0.40;;;15.60;99.90;;;;;;5074655;28;20448;-76
2022/04/13 05:47:57;;;;;;;0.50;0.30;;;15.80;99.90;;;;;;5074666;28;20472;-77
2022/04/13 05:50:25;;;;;;;0.50;0.30;;;16.00;99.90;;;;;;5072510;28;20471;-76
2022/04/13 05:52:51;;;;;;;0.50;0.37;;;16.00;99.90;;;;;;5073271;28;20463;-78
2022/04/13 05:55:19;;;;;;;0.50;0.40;;;16.10;99.90;;;;;;5073049;28;20436;-72
2022/04/13 05:57:46;;;;;;;3.90;2.73;;;16.10;99.90;;;;;;5073003;28;20436;-77
2022/04/13 06:00:14;;;;;;;0.73;0.73;;;16.10;99.90;;;;;;5072515;28;20526;-77
2022/04/13 06:02:41;;;;;;;0.50;0.30;;;16.20;99.90;;;;;;5073020;28;20456;-77
2022/04/13 06:05:09;;;;;;;0.50;0.30;;;16.30;99.90;;;;;;5073132;28;20460;-77
2022/04/13 06:07:36;;;;;;;0.50;0.30;;;16.60;99.90;;;;;;5072437;28;20468;-78
2022/04/13 06:10:05;;;;;;;0.50;0.40;;;17.00;99.90;;;;;;5072211;28;20441;-78
2022/04/13 06:12:34;;;;;;;0.50;0.30;;;17.50;99.90;;;;;;5074132;28;20517;-77
2022/04/13 06:15:08;;;;;;;1.53;1.53;;;18.00;99.90;;;;;;5072156;28;20445;-78
2022/04/13 06:17:35;;;;;;;0.50;0.40;;;18.60;99.90;;;;;;5073178;28;20442;-79
2022/04/13 06:20:03;;;;;;;0.50;0.30;;;19.30;99.90;;;;;;5072165;28;20928;-77
2022/04/13 06:22:32;;;;;;;0.50;0.40;;;19.90;99.90;;;;;;5073382;28;20470;-79
2022/04/13 06:25:01;;;;;;;0.50;0.30;;;20.50;99.90;;;;;;5073058;28;20463;-77
2022/04/13 06:27:28;;;;;;;0.50;0.40;;;21.00;99.90;;;;;;5072356;28;20480;-76
2022/04/13 06:29:56;;;;;;;0.50;0.40;;;21.40;99.90;;;;;;5072568;28;20956;-74
2022/04/13 06:32:31;;;;;;;0.50;0.30;;;21.30;99.90;;;;;;5072867;28;20564;-76
2022/04/13 06:34:59;;;;;;;0.50;0.40;;;21.50;99.90;;;;;;5072328;28;20436;-78
2022/04/13 06:37:26;;;;;;;0.50;0.30;;;22.00;99.90;;;;;;5072225;28;20444;-77
2022/04/13 06:39:52;;;;;;;0.50;0.40;;;22.10;99.90;;;;;;5071580;28;20436;-77
2022/04/13 06:42:21;;;;;;;0.50;0.30;;;22.20;99.90;;;;;;5071981;28;20973;-77
2022/04/13 06:44:49;;;;;;;0.50;0.30;;;21.80;99.90;;;;;;5072516;28;20528;-75
2022/04/13 06:47:18;;;;;;;0.53;0.43;;;21.60;99.90;;;;;;5071764;28;20472;-77
2022/04/13 06:49:45;;;;;;;0.50;0.30;;;21.70;99.90;;;;;;5071399;28;20533;-77
2022/04/13 06:52:12;;;;;;;0.50;0.30;;;21.90;99.80;;;;;;5071866;28;21003;-78
2022/04/13 06:54:39;;;;;;;0.50;0.40;;;22.30;99.40;;;;;;5071910;28;20429;-77
2022/04/13 06:57:06;;;;;;;0.50;0.37;;;23.00;98.20;;;;;;5071864;28;20443;-77
2022/04/13 06:59:33;;;;;;;0.50;0.50;;;23.30;95.90;;;;;;5071201;28;20438;-77
2022/04/13 07:02:00;;;;;;;1.50;1.50;;;23.80;94.90;;;;;;5071679;28;20460;-76
2022/04/13 07:04:28;;;;;;;0.50;0.40;;;24.30;94.50;;;;;;5071728;28;20451;-77
2022/04/13 07:06:54;;;;;;;0.50;0.30;;;25.20;92.60;;;;;;5071032;28;20468;-77
2022/04/13 07:09:21;;;;;;;0.70;0.70;;;26.10;90.70;;;;;;5071017;28;20780;-77
2022/04/13 07:11:48;;;;;;;0.60;0.60;;;26.80;84.90;;;;;;5071690;28;20452;-76
2022/04/13 07:14:14;;;;;;;0.50;0.30;;;27.40;80.90;;;;;;5072083;28;20827;-77
2022/04/13 07:16:41;;;;;;;0.50;0.30;;;27.50;75.90;;;;;;5071299;28;20519;-76
2022/04/13 07:19:08;;;;;;;0.50;0.30;;;27.40;75.10;;;;;;5071010;28;20543;-76
2022/04/13 07:21:36;;;;;;;0.50;0.40;;;27.60;74.40;;;;;;5071412;28;20479;-78
2022/04/13 07:24:02;;;;;;;0.50;0.30;;;27.80;72.20;;;;;;5071211;28;20432;-76
2022/04/13 07:26:29;;;;;;;8.37;0.87;;;27.90;71.90;;;;;;5070613;28;20436;-77
2022/04/13 07:28:56;;;;;;;1.90;1.80;;;28.20;71.00;;;;;;5069847;28;20460;-78
2022/04/13 07:31:23;;;;;;;0.50;0.40;;;28.60;70.70;;;;;;5071284;28;20432;-78
2022/04/13 07:33:50;;;;;;;0.50;0.40;;;29.20;70.30;;;;;;5071503;28;20416;-78
2022/04/13 07:36:17;;;;;;;0.50;0.30;;;29.90;67.00;;;;;;5071463;28;20471;-78
2022/04/13 07:38:45;;;;;;;0.50;0.30;;;30.50;66.70;;;;;;5097547;22;20566;-76
2022/04/13 07:41:11;;;;;;;0.50;0.30;;;30.00;65.40;;;;;;5050590;28;20441;-76
2022/04/13 07:43:38;;;;;;;0.50;0.30;;;30.50;64.50;;;;;;5051027;28;20858;-76
2022/04/13 07:46:05;;;;;;;0.50;0.30;;;31.00;62.50;;;;;;5051205;28;20437;-77
2022/04/13 07:48:32;;;;;;;0.50;0.30;;;30.60;61.90;;;;;;5051185;28;20519;-76
2022/04/13 07:50:58;;;;;;;4.83;4.53;;;30.30;63.80;;;;;;5050371;28;20448;-76
2022/04/13 07:53:25;;;;;;;8.13;0.93;;;30.90;63.20;;;;;;5050800;28;20448;-76
2022/04/13 07:55:53;;;;;;;0.50;0.30;;;31.50;59.60;;;;;;5050910;28;20460;-76
2022/04/13 07:58:20;;;;;;;0.50;0.30;;;30.60;61.20;;;;;;5051259;28;20460;-76
2022/04/13 08:00:46;;;;;;;0.50;0.33;;;31.30;61.20;;;;;;5050058;28;20448;-76
2022/04/13 08:03:13;;;;;;;0.50;0.30;;;32.10;59.00;;;;;;5050694;28;20437;-76
2022/04/13 08:05:41;;;;;;;0.50;0.30;;;32.70;59.60;;;;;;5051377;28;20831;-77
2022/04/13 08:08:08;;;;;;;0.50;0.30;;;33.60;58.50;;;;;;5051143;28;20481;-77
2022/04/13 08:10:34;;;;;;;1.67;1.37;;;33.60;55.70;;;;;;5050127;28;20445;-78
2022/04/13 08:13:02;;;;;;;0.50;0.30;;;33.30;55.50;;;;;;5051025;28;20437;-77
2022/04/13 08:15:29;;;;;;;0.50;0.30;;;33.50;55.70;;;;;;5051154;28;20935;-77
2022/04/13 08:17:56;;;;;;;0.50;0.30;;;34.20;54.30;;;;;;5050884;28;20449;-76
2022/04/13 08:20:22;;;;;;;0.50;0.30;;;34.70;54.60;;;;;;5050466;28;20437;-76
2022/04/13 08:22:49;;;;;;;0.50;0.30;;;34.80;52.80;;;;;;5050392;28;20437;-77
2022/04/13 08:25:16;;;;;;;0.50;0.30;;;34.70;55.40;;;;;;5050641;28;20475;-76
2022/04/13 08:27:43;;;;;;;0.50;0.30;;;35.00;54.70;;;;;;5049489;28;20477;-76
2022/04/13 08:30:13;;;;;;;0.50;0.30;;;35.40;53.00;;;;;;5049868;28;20456;-77
2022/04/13 08:32:40;;;;;;;1.80;1.13;;;35.50;52.30;;;;;;5050688;28;20437;-76
2022/04/13 08:35:09;;;;;;;0.50;0.40;;;36.00;52.70;;;;;;5050483;28;21048;-77
2022/04/13 08:37:37;;;;;;;0.50;0.30;;;36.40;51.00;;;;;;5051525;28;20894;-76
2022/04/13 08:40:04;;;;;;;0.50;0.30;;;36.40;50.50;;;;;;5053708;28;20418;-74
2022/04/13 08:42:39;;;;;;;0.50;0.30;;;36.00;51.60;;;;;;5054559;28;20960;-77
2022/04/13 08:45:16;;;;;;;0.40;0.30;;;36.30;50.50;;;;;;5054218;28;20490;-76
2022/04/13 08:47:45;;;;;;;0.50;0.30;;;36.00;50.20;;;;;;5053659;28;20506;-78
2022/04/13 08:50:13;;;;;;;0.40;0.30;;;35.60;51.80;;;;;;5053724;28;20445;-77
2022/04/13 08:52:41;;;;;;;0.50;0.30;;;35.80;50.70;;;;;;5054295;28;20468;-76
2022/04/13 08:55:09;;;;;;;0.40;0.30;;;35.70;50.00;;;;;;5054121;28;20437;-77
2022/04/13 08:57:38;;;;;;;1.23;1.13;;;36.00;50.40;;;;;;5053891;28;20488;-76
2022/04/13 09:00:13;;;;;;;0.50;0.30;;;36.10;49.50;;;;;;5053235;28;20433;-76
2022/04/13 09:03:16;;;;;;;0.50;0.30;;;35.70;49.40;;;;;;5053830;28;20440;-76
2022/04/13 09:05:46;;;;;;;0.40;0.30;;;35.10;50.60;;;;;;5032221;28;20810;-77
2022/04/13 09:08:18;;;;;;;0.43;0.30;;;35.60;51.00;;;;;;5053726;28;20508;-76
2022/04/13 09:10:46;;;;;;;0.60;0.60;;;35.70;50.20;;;;;;5053054;28;20418;-77
2022/04/13 09:13:13;;;;;;;0.40;0.30;;;36.30;49.00;;;;;;5053595;28;20441;-77
2022/04/13 09:15:43;;;;;;;0.50;0.40;;;36.20;50.30;;;;;;5053832;28;20444;-77
2022/04/13 09:18:10;;;;;;;0.50;0.30;;;36.70;50.20;;;;;;5053686;28;20458;-76
2022/04/13 09:20:38;;;;;;;0.50;0.30;;;35.90;48.80;;;;;;5053110;28;20488;-77
2022/04/13 09:23:06;;;;;;;0.50;0.40;;;36.80;50.20;;;;;;5053476;28;20441;-77
2022/04/13 09:25:36;;;;;;;0.57;0.30;;;37.60;48.60;;;;;;5053462;28;20457;-77
2022/04/13 09:28:03;;;;;;;0.40;0.30;;;38.50;47.50;;;;;;5052643;28;20480;-76
2022/04/13 09:30:32;;;;;;;0.40;0.30;;;38.00;48.50;;;;;;5053008;28;20448;-76
2022/04/13 09:33:01;;;;;;;0.40;0.30;;;37.50;46.60;;;;;;5053337;28;20467;-76
2022/04/13 09:35:31;;;;;;;0.40;0.30;;;37.90;49.50;;;;;;5053608;28;20464;-76
2022/04/13 09:38:01;;;;;;;0.40;0.30;;;38.20;46.90;;;;;;5052844;28;20465;-76
2022/04/13 09:40:34;;;;;;;0.40;0.30;;;37.80;47.20;;;;;;5052724;28;20441;-76
2022/04/13 09:43:06;;;;;;;0.50;0.30;;;36.60;47.00;;;;;;5053127;28;20438;-76
2022/04/13 09:45:37;;;;;;;0.50;0.30;;;35.10;48.00;;;;;;5052695;28;20473;-77
2022/04/13 09:48:10;;;;;;;0.50;0.30;;;33.70;50.30;;;;;;5052819;28;20477;-76
2022/04/13 09:50:37;;;;;;;0.50;0.40;;;33.20;52.20;;;;;;5052460;28;20460;-76
2022/04/13 09:53:05;;;;;;;0.50;0.30;;;33.50;52.20;;;;;;5052601;28;20515;-76
2022/04/13 09:55:35;;;;;;;0.50;0.30;;;33.70;52.40;;;;;;5053647;28;20472;-76
2022/04/13 09:58:12;;;;;;;0.50;0.30;;;33.30;52.60;;;;;;5052724;28;20461;-76
2022/04/13 10:00:40;;;;;;;0.50;0.30;;;32.40;52.90;;;;;;5052108;28;20413;-76
2022/04/13 10:03:10;;;;;;;0.50;0.30;;;32.40;55.20;;;;;;5052343;28;20803;-73
2022/04/13 10:05:38;;;;;;;0.50;0.30;;;32.40;53.70;;;;;;5053140;28;20418;-76
2022/04/13 10:08:06;;;;;;;0.87;0.80;;;33.10;53.20;;;;;;5052546;28;20477;-76
2022/04/13 10:10:33;;;;;;;0.50;0.30;;;32.80;52.00;;;;;;5051941;28;20441;-76
2022/04/13 10:13:00;;;;;;;0.50;0.30;;;32.80;51.50;;;;;;5052744;28;20850;-76
2022/04/13 10:15:26;;;;;;;0.50;0.30;;;33.20;53.80;;;;;;5052151;28;20444;-78
2022/04/13 10:17:58;;;;;;;3.90;3.70;;;33.60;50.90;;;;;;5052061;28;20457;-76
2022/04/13 10:20:41;;;;;;;0.87;0.87;;;32.70;52.50;;;;;;5052121;28;20422;-76
2022/04/13 10:23:08;;;;;;;0.50;0.40;;;32.50;52.90;;;;;;5052648;28;20456;-72
2022/04/13 10:25:34;;;;;;;0.50;0.30;;;32.20;53.90;;;;;;5052418;28;20437;-76
2022/04/13 10:28:02;;;;;;;0.50;0.40;;;31.70;54.30;;;;;;5051406;28;20481;-74
2022/04/13 10:30:31;;;;;;;0.50;0.40;;;31.90;55.10;;;;;;5051533;28;20811;-76
2022/04/13 10:33:00;;;;;;;0.50;0.30;;;32.20;54.90;;;;;;5052433;28;20448;-76
2022/04/13 10:35:29;;;;;;;0.50;0.30;;;33.30;54.20;;;;;;5052213;28;20807;-76
2022/04/13 10:37:56;;;;;;;0.50;0.30;;;34.20;53.00;;;;;;5051893;28;20472;-77
2022/04/13 10:40:25;;;;;;;0.50;0.30;;;35.60;52.40;;;;;;5051712;28;20484;-77
2022/04/13 10:42:53;;;;;;;0.40;0.30;;;36.80;51.90;;;;;;5051985;28;20441;-76
2022/04/13 10:45:20;;;;;;;0.40;0.30;;;37.90;49.80;;;;;;5051868;28;20433;-76
2022/04/13 10:47:53;;;;;;;0.50;0.40;;;37.90;48.80;;;;;;5052188;28;20454;-77
2022/04/13 10:50:30;;;;;;;0.40;0.30;;;36.80;48.70;;;;;;5051228;28;20426;-76
2022/04/13 10:53:00;;;;;;;0.40;0.40;;;36.90;49.60;;;;;;5051670;28;20907;-77
2022/04/13 10:55:30;;;;;;;0.53;0.53;;;36.00;49.10;;;;;;5051988;28;20444;-76
2022/04/13 10:58:03;;;;;;;1.03;1.03;;;36.00;49.80;;;;;;5051483;28;20476;-77
2022/04/13 11:00:32;;;;;;;0.50;0.30;;;35.90;50.00;;;;;;5051056;28;20422;-77
2022/04/13 11:03:01;;;;;;;0.40;0.30;;;35.80;50.80;;;;;;5052206;28;20441;-76
2022/04/13 11:05:29;;;;;;;0.50;0.30;;;35.70;49.60;;;;;;5051488;28;20776;-76
2022/04/13 11:08:05;;;;;;;0.43;0.40;;;35.50;49.60;;;;;;5051438;28;20477;-76
2022/04/13 11:10:34;;;;;;;0.50;0.30;;;35.70;50.20;;;;;;5050730;28;20787;-76
2022/04/13 11:13:01;;;;;;;0.50;0.30;;;35.50;50.20;;;;;;5051815;28;20541;-74
2022/04/13 11:15:38;;;;;;;0.50;0.30;;;34.70;51.50;;;;;;5051691;28;20788;-76
2022/04/13 11:18:09;;;;;;;0.50;0.30;;;34.20;51.60;;;;;;5051755;28;20853;-76
2022/04/13 11:20:36;;;;;;;2.80;0.50;;;33.40;52.50;;;;;;5050793;28;20499;-76
2022/04/13 11:23:19;;;;;;;0.50;0.47;;;32.40;52.90;;;;;;5051881;28;20437;-75
2022/04/13 11:25:48;;;;;;;1.13;1.13;;;31.20;54.90;;;;;;5050541;28;20449;-76
2022/04/13 11:28:26;;;;;;;0.50;0.30;;;30.70;56.40;;;;;;5050479;28;20484;-76
2022/04/13 11:31:04;;;;;;;0.50;0.30;;;29.60;58.10;;;;;;5050651;28;20447;-77
2022/04/13 11:33:51;;;;;;;1.43;0.60;;;29.20;59.50;;;;;;5051330;28;20441;-76
2022/04/13 11:36:19;;;;;;;1.37;0.87;;;29.30;60.00;;;;;;5051330;28;20436;-76
2022/04/13 11:38:51;;;;;;;0.50;0.30;;;29.30;61.60;;;;;;5050580;28;21008;-73
2022/04/13 11:41:19;;;;;;;1.10;1.00;;;29.70;60.40;;;;;;5051086;28;20932;-76
2022/04/13 11:43:46;;;;;;;0.50;0.30;;;29.40;60.10;;;;;;5051627;28;20433;-76
2022/04/13 11:46:35;;;;;;;4.03;1.60;;;29.70;60.20;;;;;;5051644;28;20441;-73
2022/04/13 11:49:02;;;;;;;0.60;0.50;;;29.80;58.30;;;;;;5050207;28;20504;-72
2022/04/13 11:51:30;;;;;;;1.33;0.70;;;29.50;57.90;;;;;;5050988;28;20441;-77
2022/04/13 11:54:07;;;;;;;0.50;0.30;;;29.30;59.20;;;;;;5050980;28;20499;-76
2022/04/13 11:56:35;;;;;;;0.50;0.30;;;30.00;60.30;;;;;;5051812;28;20440;-77
2022/04/13 11:59:02;;;;;;;0.80;0.73;;;29.80;59.60;;;;;;5050328;28;20460;-72
2022/04/13 12:01:28;;;;;;;0.50;0.40;;;29.30;59.80;;;;;;5051160;28;20437;-76
2022/04/13 12:03:58;;;;;;;0.50;0.30;;;28.90;59.80;;;;;;5051011;28;20842;-77
2022/04/13 12:06:26;;;;;;;0.50;0.30;;;28.90;60.70;;;;;;5051114;28;20528;-76
2022/04/13 12:08:55;;;;;;;0.50;0.30;;;28.80;61.70;;;;;;5050183;28;20473;-76
2022/04/13 12:11:24;;;;;;;0.50;0.30;;;29.10;62.20;;;;;;5051421;28;20799;-76
2022/04/13 12:13:53;;;;;;;1.00;0.90;;;29.50;60.10;;;;;;5054565;28;20449;-76
2022/04/13 12:16:22;;;;;;;0.50;0.30;;;29.20;59.60;;;;;;5055053;28;20961;-77
2022/04/13 12:18:50;;;;;;;0.70;0.70;;;28.90;58.70;;;;;;5054501;28;20453;-76
2022/04/13 12:21:18;;;;;;;0.50;0.30;;;28.20;58.60;;;;;;5054860;28;20433;-76
2022/04/13 12:23:45;;;;;;;0.60;0.57;;;27.50;60.70;;;;;;5054933;28;20445;-77
2022/04/13 12:26:12;;;;;;;0.50;0.30;;;27.80;62.60;;;;;;5054983;28;20441;-74
2022/04/13 12:28:40;;;;;;;0.50;0.40;;;28.10;62.30;;;;;;5052845;28;20480;-76
2022/04/13 12:31:09;;;;;;;0.50;0.30;;;28.10;63.20;;;;;;5053963;28;20915;-74
2022/04/13 12:33:36;;;;;;;0.50;0.40;;;28.10;62.00;;;;;;5054150;28;20437;-76
2022/04/13 12:36:05;;;;;;;0.50;0.30;;;28.70;62.40;;;;;;5054840;28;20448;-76
2022/04/13 12:38:33;;;;;;;0.50;0.30;;;29.40;60.90;;;;;;5054330;28;20828;-78
2022/04/13 12:41:05;;;;;;;0.50;0.30;;;30.30;58.90;;;;;;5054359;28;20908;-77
2022/04/13 12:43:33;;;;;;;0.80;0.80;;;30.60;58.60;;;;;;5055503;28;20436;-76
2022/04/13 12:46:10;;;;;;;0.50;0.30;;;30.50;58.30;;;;;;5054047;28;20445;-76
2022/04/13 12:48:36;;;;;;;0.50;0.30;;;30.30;59.90;;;;;;5054552;28;20479;-76
2022/04/13 12:51:05;;;;;;;0.53;0.40;;;30.00;59.90;;;;;;5054047;28;20479;-76
2022/04/13 12:53:51;;;;;;;1.00;1.00;;;29.60;59.50;;;;;;5053993;28;20966;-76
2022/04/13 12:56:20;;;;;;;1.60;1.27;;;28.50;60.70;;;;;;5054208;28;20432;-76